sensor_id;sensor_type;location;lat;lon;timestamp;P1;durP1;ratioP1;P2;durP2;ratioP2
60014;SDS011;45867;52.480;6.056;2023-09-18T00:00:50;27.83;;;17.38;;
60014;SDS011;45867;52.480;6.056;2023-09-18T00:03:20;31.23;;;17.40;;
60014;SDS011;45867;52.480;6.056;2023-09-18T00:05:48;31.00;;;17.73;;
60014;SDS011;45867;52.480;6.056;2023-09-18T00:08:15;29.23;;;15.73;;
60014;SDS011;45867;52.480;6.056;2023-09-18T00:10:42;25.50;;;17.08;;
60014;SDS011;45867;52.480;6.056;2023-09-18T00:13:13;26.27;;;16.33;;
60014;SDS011;45867;52.480;6.056;2023-09-18T00:15:40;25.70;;;17.20;;
60014;SDS011;45867;52.480;6.056;2023-09-18T00:18:06;29.75;;;16.65;;
60014;SDS011;45867;52.480;6.056;2023-09-18T00:20:33;28.65;;;17.10;;
60014;SDS011;45867;52.480;6.056;2023-09-18T00:22:59;27.98;;;17.17;;
60014;SDS011;45867;52.480;6.056;2023-09-18T00:25:26;27.00;;;15.73;;
60014;SDS011;45867;52.480;6.056;2023-09-18T00:27:52;21.73;;;15.20;;
60014;SDS011;45867;52.480;6.056;2023-09-18T00:30:19;30.52;;;15.38;;
60014;SDS011;45867;52.480;6.056;2023-09-18T00:32:46;24.35;;;16.15;;
60014;SDS011;45867;52.480;6.056;2023-09-18T00:35:12;27.60;;;16.00;;
60014;SDS011;45867;52.480;6.056;2023-09-18T00:37:39;29.05;;;15.65;;
60014;SDS011;45867;52.480;6.056;2023-09-18T00:40:06;23.27;;;13.80;;
60014;SDS011;45867;52.480;6.056;2023-09-18T00:42:33;28.70;;;16.85;;
60014;SDS011;45867;52.480;6.056;2023-09-18T00:45:00;34.30;;;18.00;;
60014;SDS011;45867;52.480;6.056;2023-09-18T00:47:26;33.45;;;18.70;;
60014;SDS011;45867;52.480;6.056;2023-09-18T00:49:53;31.98;;;19.23;;
60014;SDS011;45867;52.480;6.056;2023-09-18T00:52:20;28.30;;;18.17;;
60014;SDS011;45867;52.480;6.056;2023-09-18T00:54:48;29.48;;;18.88;;
60014;SDS011;45867;52.480;6.056;2023-09-18T00:57:15;35.58;;;20.00;;
60014;SDS011;45867;52.480;6.056;2023-09-18T00:59:42;40.85;;;21.45;;
60014;SDS011;45867;52.480;6.056;2023-09-18T01:02:08;42.75;;;20.23;;
60014;SDS011;45867;52.480;6.056;2023-09-18T01:04:36;35.83;;;21.60;;
60014;SDS011;45867;52.480;6.056;2023-09-18T01:07:03;32.75;;;20.63;;
60014;SDS011;45867;52.480;6.056;2023-09-18T01:09:32;37.08;;;21.40;;
60014;SDS011;45867;52.480;6.056;2023-09-18T01:12:08;37.92;;;21.45;;
60014;SDS011;45867;52.480;6.056;2023-09-18T01:17:16;40.33;;;21.95;;
60014;SDS011;45867;52.480;6.056;2023-09-18T01:19:43;36.25;;;22.48;;
60014;SDS011;45867;52.480;6.056;2023-09-18T01:22:13;43.92;;;22.20;;
60014;SDS011;45867;52.480;6.056;2023-09-18T01:24:41;44.50;;;22.98;;
60014;SDS011;45867;52.480;6.056;2023-09-18T01:27:08;39.88;;;23.15;;
60014;SDS011;45867;52.480;6.056;2023-09-18T01:29:37;39.83;;;21.42;;
60014;SDS011;45867;52.480;6.056;2023-09-18T01:32:04;43.53;;;22.13;;
60014;SDS011;45867;52.480;6.056;2023-09-18T01:34:32;40.25;;;20.92;;
60014;SDS011;45867;52.480;6.056;2023-09-18T01:37:03;37.20;;;20.83;;
60014;SDS011;45867;52.480;6.056;2023-09-18T01:39:32;38.53;;;20.85;;
60014;SDS011;45867;52.480;6.056;2023-09-18T01:42:03;35.28;;;21.05;;
60014;SDS011;45867;52.480;6.056;2023-09-18T01:44:33;35.30;;;20.98;;
60014;SDS011;45867;52.480;6.056;2023-09-18T01:47:02;33.55;;;20.92;;
60014;SDS011;45867;52.480;6.056;2023-09-18T01:49:31;34.70;;;20.95;;
60014;SDS011;45867;52.480;6.056;2023-09-18T01:51:59;36.30;;;20.70;;
60014;SDS011;45867;52.480;6.056;2023-09-18T01:54:26;32.83;;;20.17;;
60014;SDS011;45867;52.480;6.056;2023-09-18T01:56:53;34.08;;;19.77;;
60014;SDS011;45867;52.480;6.056;2023-09-18T01:59:20;36.72;;;19.50;;
60014;SDS011;45867;52.480;6.056;2023-09-18T02:01:47;35.78;;;20.55;;
60014;SDS011;45867;52.480;6.056;2023-09-18T02:04:15;38.90;;;20.67;;
60014;SDS011;45867;52.480;6.056;2023-09-18T02:07:02;34.97;;;21.08;;
60014;SDS011;45867;52.480;6.056;2023-09-18T02:09:29;30.90;;;20.00;;
60014;SDS011;45867;52.480;6.056;2023-09-18T02:11:55;34.63;;;19.75;;
60014;SDS011;45867;52.480;6.056;2023-09-18T02:14:22;32.28;;;19.73;;
60014;SDS011;45867;52.480;6.056;2023-09-18T02:16:48;37.67;;;20.83;;
60014;SDS011;45867;52.480;6.056;2023-09-18T02:19:15;31.35;;;19.48;;
60014;SDS011;45867;52.480;6.056;2023-09-18T02:21:42;34.95;;;18.98;;
60014;SDS011;45867;52.480;6.056;2023-09-18T02:24:08;30.90;;;19.88;;
60014;SDS011;45867;52.480;6.056;2023-09-18T02:26:35;33.40;;;19.73;;
60014;SDS011;45867;52.480;6.056;2023-09-18T02:29:03;28.48;;;18.67;;
60014;SDS011;45867;52.480;6.056;2023-09-18T02:31:38;29.08;;;19.48;;
60014;SDS011;45867;52.480;6.056;2023-09-18T02:34:05;33.33;;;20.90;;
60014;SDS011;45867;52.480;6.056;2023-09-18T02:36:32;30.67;;;18.98;;
60014;SDS011;45867;52.480;6.056;2023-09-18T02:38:59;32.65;;;19.63;;
60014;SDS011;45867;52.480;6.056;2023-09-18T02:41:26;31.58;;;18.98;;
60014;SDS011;45867;52.480;6.056;2023-09-18T02:43:52;31.58;;;19.23;;
60014;SDS011;45867;52.480;6.056;2023-09-18T02:46:19;30.45;;;18.85;;
60014;SDS011;45867;52.480;6.056;2023-09-18T02:48:45;29.77;;;17.63;;
60014;SDS011;45867;52.480;6.056;2023-09-18T02:51:12;34.67;;;19.15;;
60014;SDS011;45867;52.480;6.056;2023-09-18T02:53:39;30.85;;;18.27;;
60014;SDS011;45867;52.480;6.056;2023-09-18T02:56:05;29.65;;;18.20;;
60014;SDS011;45867;52.480;6.056;2023-09-18T02:58:32;32.10;;;18.83;;
60014;SDS011;45867;52.480;6.056;2023-09-18T03:00:58;32.95;;;19.00;;
60014;SDS011;45867;52.480;6.056;2023-09-18T03:03:25;29.15;;;18.20;;
60014;SDS011;45867;52.480;6.056;2023-09-18T03:05:52;30.75;;;18.15;;
60014;SDS011;45867;52.480;6.056;2023-09-18T03:08:18;28.13;;;17.90;;
60014;SDS011;45867;52.480;6.056;2023-09-18T03:10:45;29.48;;;17.70;;
60014;SDS011;45867;52.480;6.056;2023-09-18T03:13:13;28.85;;;17.58;;
60014;SDS011;45867;52.480;6.056;2023-09-18T03:15:43;27.77;;;17.33;;
60014;SDS011;45867;52.480;6.056;2023-09-18T03:18:11;29.20;;;17.95;;
60014;SDS011;45867;52.480;6.056;2023-09-18T03:20:37;32.72;;;18.00;;
60014;SDS011;45867;52.480;6.056;2023-09-18T03:23:04;29.67;;;17.48;;
60014;SDS011;45867;52.480;6.056;2023-09-18T03:25:31;34.55;;;18.27;;
60014;SDS011;45867;52.480;6.056;2023-09-18T03:28:17;26.95;;;17.33;;
60014;SDS011;45867;52.480;6.056;2023-09-18T03:30:44;29.65;;;17.80;;
60014;SDS011;45867;52.480;6.056;2023-09-18T03:33:10;29.90;;;18.02;;
60014;SDS011;45867;52.480;6.056;2023-09-18T03:35:49;31.40;;;18.25;;
60014;SDS011;45867;52.480;6.056;2023-09-18T03:38:17;33.05;;;17.52;;
60014;SDS011;45867;52.480;6.056;2023-09-18T03:40:44;31.55;;;18.40;;
60014;SDS011;45867;52.480;6.056;2023-09-18T03:43:11;25.02;;;17.13;;
60014;SDS011;45867;52.480;6.056;2023-09-18T03:45:39;31.35;;;18.25;;
60014;SDS011;45867;52.480;6.056;2023-09-18T03:48:08;27.13;;;17.35;;
60014;SDS011;45867;52.480;6.056;2023-09-18T03:50:38;36.38;;;17.25;;
60014;SDS011;45867;52.480;6.056;2023-09-18T03:53:06;29.73;;;16.65;;
60014;SDS011;45867;52.480;6.056;2023-09-18T03:55:33;27.05;;;16.65;;
60014;SDS011;45867;52.480;6.056;2023-09-18T03:58:02;29.10;;;17.90;;
60014;SDS011;45867;52.480;6.056;2023-09-18T04:00:28;33.33;;;17.80;;
60014;SDS011;45867;52.480;6.056;2023-09-18T04:02:55;24.65;;;16.77;;
60014;SDS011;45867;52.480;6.056;2023-09-18T04:05:21;28.73;;;16.55;;
60014;SDS011;45867;52.480;6.056;2023-09-18T04:07:48;27.33;;;15.82;;
60014;SDS011;45867;52.480;6.056;2023-09-18T04:10:15;27.80;;;15.45;;
60014;SDS011;45867;52.480;6.056;2023-09-18T04:12:43;30.67;;;16.77;;
60014;SDS011;45867;52.480;6.056;2023-09-18T04:15:09;28.23;;;15.27;;
60014;SDS011;45867;52.480;6.056;2023-09-18T04:17:38;25.80;;;16.08;;
60014;SDS011;45867;52.480;6.056;2023-09-18T04:20:08;27.70;;;16.42;;
60014;SDS011;45867;52.480;6.056;2023-09-18T04:22:41;30.02;;;16.13;;
60014;SDS011;45867;52.480;6.056;2023-09-18T04:25:12;33.78;;;15.93;;
60014;SDS011;45867;52.480;6.056;2023-09-18T04:27:38;28.88;;;15.25;;
60014;SDS011;45867;52.480;6.056;2023-09-18T04:30:08;24.23;;;15.02;;
60014;SDS011;45867;52.480;6.056;2023-09-18T04:32:38;24.60;;;14.68;;
60014;SDS011;45867;52.480;6.056;2023-09-18T04:35:06;26.40;;;15.38;;
60014;SDS011;45867;52.480;6.056;2023-09-18T04:37:36;24.75;;;15.13;;
60014;SDS011;45867;52.480;6.056;2023-09-18T04:40:07;24.83;;;14.85;;
60014;SDS011;45867;52.480;6.056;2023-09-18T04:42:34;22.17;;;13.73;;
60014;SDS011;45867;52.480;6.056;2023-09-18T04:45:03;26.48;;;15.52;;
60014;SDS011;45867;52.480;6.056;2023-09-18T04:47:30;27.25;;;14.57;;
60014;SDS011;45867;52.480;6.056;2023-09-18T04:49:57;28.13;;;15.32;;
60014;SDS011;45867;52.480;6.056;2023-09-18T04:52:24;28.35;;;14.70;;
60014;SDS011;45867;52.480;6.056;2023-09-18T04:54:50;28.17;;;14.65;;
60014;SDS011;45867;52.480;6.056;2023-09-18T04:57:17;26.02;;;14.68;;
60014;SDS011;45867;52.480;6.056;2023-09-18T04:59:45;24.55;;;13.98;;
60014;SDS011;45867;52.480;6.056;2023-09-18T05:02:11;28.52;;;14.38;;
60014;SDS011;45867;52.480;6.056;2023-09-18T05:04:43;28.48;;;15.05;;
60014;SDS011;45867;52.480;6.056;2023-09-18T05:07:13;30.58;;;14.63;;
60014;SDS011;45867;52.480;6.056;2023-09-18T05:09:39;32.13;;;13.60;;
60014;SDS011;45867;52.480;6.056;2023-09-18T05:12:06;27.63;;;13.40;;
60014;SDS011;45867;52.480;6.056;2023-09-18T05:14:36;28.17;;;14.13;;
60014;SDS011;45867;52.480;6.056;2023-09-18T05:17:02;28.30;;;13.85;;
60014;SDS011;45867;52.480;6.056;2023-09-18T05:19:29;21.35;;;12.63;;
60014;SDS011;45867;52.480;6.056;2023-09-18T05:21:55;29.48;;;13.38;;
60014;SDS011;45867;52.480;6.056;2023-09-18T05:24:22;24.65;;;13.43;;
60014;SDS011;45867;52.480;6.056;2023-09-18T05:26:48;25.67;;;13.45;;
60014;SDS011;45867;52.480;6.056;2023-09-18T05:29:15;26.63;;;12.13;;
60014;SDS011;45867;52.480;6.056;2023-09-18T05:31:41;26.80;;;13.20;;
60014;SDS011;45867;52.480;6.056;2023-09-18T05:34:08;22.60;;;12.07;;
60014;SDS011;45867;52.480;6.056;2023-09-18T05:36:34;19.58;;;11.75;;
60014;SDS011;45867;52.480;6.056;2023-09-18T05:39:04;24.70;;;11.57;;
60014;SDS011;45867;52.480;6.056;2023-09-18T05:41:33;27.40;;;12.80;;
60014;SDS011;45867;52.480;6.056;2023-09-18T05:43:59;28.75;;;12.13;;
60014;SDS011;45867;52.480;6.056;2023-09-18T05:46:29;24.75;;;11.75;;
60014;SDS011;45867;52.480;6.056;2023-09-18T05:48:56;26.40;;;12.90;;
60014;SDS011;45867;52.480;6.056;2023-09-18T05:51:22;22.38;;;11.77;;
60014;SDS011;45867;52.480;6.056;2023-09-18T05:53:49;20.70;;;10.52;;
60014;SDS011;45867;52.480;6.056;2023-09-18T05:56:15;20.35;;;10.98;;
60014;SDS011;45867;52.480;6.056;2023-09-18T05:58:42;25.20;;;11.50;;
60014;SDS011;45867;52.480;6.056;2023-09-18T06:01:09;22.05;;;10.93;;
60014;SDS011;45867;52.480;6.056;2023-09-18T06:03:35;21.38;;;11.73;;
60014;SDS011;45867;52.480;6.056;2023-09-18T06:06:02;28.85;;;11.20;;
60014;SDS011;45867;52.480;6.056;2023-09-18T06:08:29;23.63;;;11.32;;
60014;SDS011;45867;52.480;6.056;2023-09-18T06:10:59;21.27;;;11.00;;
60014;SDS011;45867;52.480;6.056;2023-09-18T06:13:25;25.35;;;10.73;;
60014;SDS011;45867;52.480;6.056;2023-09-18T06:15:56;35.88;;;12.20;;
60014;SDS011;45867;52.480;6.056;2023-09-18T06:18:23;29.65;;;11.98;;
60014;SDS011;45867;52.480;6.056;2023-09-18T06:20:49;24.88;;;11.68;;
60014;SDS011;45867;52.480;6.056;2023-09-18T06:23:16;24.20;;;11.52;;
60014;SDS011;45867;52.480;6.056;2023-09-18T06:25:42;29.00;;;12.65;;
60014;SDS011;45867;52.480;6.056;2023-09-18T06:28:09;26.60;;;12.00;;
60014;SDS011;45867;52.480;6.056;2023-09-18T06:30:36;28.00;;;13.15;;
60014;SDS011;45867;52.480;6.056;2023-09-18T06:33:08;25.83;;;12.45;;
60014;SDS011;45867;52.480;6.056;2023-09-18T06:35:34;24.10;;;12.50;;
60014;SDS011;45867;52.480;6.056;2023-09-18T06:38:18;32.38;;;12.23;;
60014;SDS011;45867;52.480;6.056;2023-09-18T06:40:46;23.45;;;11.95;;
60014;SDS011;45867;52.480;6.056;2023-09-18T06:43:12;24.80;;;12.55;;
60014;SDS011;45867;52.480;6.056;2023-09-18T06:45:42;24.38;;;12.45;;
60014;SDS011;45867;52.480;6.056;2023-09-18T06:48:09;31.90;;;13.07;;
60014;SDS011;45867;52.480;6.056;2023-09-18T06:50:36;25.85;;;12.10;;
60014;SDS011;45867;52.480;6.056;2023-09-18T06:53:02;27.67;;;12.35;;
60014;SDS011;45867;52.480;6.056;2023-09-18T06:55:29;20.55;;;12.30;;
60014;SDS011;45867;52.480;6.056;2023-09-18T06:57:56;22.65;;;11.27;;
60014;SDS011;45867;52.480;6.056;2023-09-18T07:00:22;28.88;;;12.27;;
60014;SDS011;45867;52.480;6.056;2023-09-18T07:02:49;21.60;;;11.23;;
60014;SDS011;45867;52.480;6.056;2023-09-18T07:05:16;19.33;;;12.07;;
60014;SDS011;45867;52.480;6.056;2023-09-18T07:07:43;21.40;;;13.02;;
60014;SDS011;45867;52.480;6.056;2023-09-18T07:10:13;24.13;;;13.60;;
60014;SDS011;45867;52.480;6.056;2023-09-18T07:12:42;28.42;;;13.85;;
60014;SDS011;45867;52.480;6.056;2023-09-18T07:15:08;28.27;;;14.48;;
60014;SDS011;45867;52.480;6.056;2023-09-18T07:17:37;30.02;;;15.15;;
60014;SDS011;45867;52.480;6.056;2023-09-18T07:20:04;33.53;;;15.23;;
60014;SDS011;45867;52.480;6.056;2023-09-18T07:22:34;27.38;;;15.23;;
60014;SDS011;45867;52.480;6.056;2023-09-18T07:25:01;31.15;;;14.82;;
60014;SDS011;45867;52.480;6.056;2023-09-18T07:27:27;26.40;;;14.45;;
60014;SDS011;45867;52.480;6.056;2023-09-18T07:29:55;21.13;;;12.98;;
60014;SDS011;45867;52.480;6.056;2023-09-18T07:32:25;24.57;;;13.30;;
60014;SDS011;45867;52.480;6.056;2023-09-18T07:35:03;27.20;;;13.27;;
60014;SDS011;45867;52.480;6.056;2023-09-18T07:37:31;23.67;;;11.65;;
60014;SDS011;45867;52.480;6.056;2023-09-18T07:39:58;23.50;;;11.60;;
60014;SDS011;45867;52.480;6.056;2023-09-18T07:42:27;24.35;;;10.70;;
60014;SDS011;45867;52.480;6.056;2023-09-18T07:44:54;20.83;;;9.80;;
60014;SDS011;45867;52.480;6.056;2023-09-18T07:47:24;17.13;;;9.73;;
60014;SDS011;45867;52.480;6.056;2023-09-18T07:49:51;17.30;;;9.40;;
60014;SDS011;45867;52.480;6.056;2023-09-18T07:52:17;16.75;;;9.60;;
60014;SDS011;45867;52.480;6.056;2023-09-18T07:54:44;14.60;;;9.10;;
60014;SDS011;45867;52.480;6.056;2023-09-18T07:57:10;18.55;;;9.45;;
60014;SDS011;45867;52.480;6.056;2023-09-18T07:59:37;17.75;;;9.48;;
60014;SDS011;45867;52.480;6.056;2023-09-18T08:02:03;25.35;;;9.98;;
60014;SDS011;45867;52.480;6.056;2023-09-18T08:04:32;16.50;;;10.23;;
60014;SDS011;45867;52.480;6.056;2023-09-18T08:06:59;24.42;;;10.43;;
60014;SDS011;45867;52.480;6.056;2023-09-18T08:09:26;23.02;;;10.30;;
60014;SDS011;45867;52.480;6.056;2023-09-18T08:11:53;19.83;;;10.20;;
60014;SDS011;45867;52.480;6.056;2023-09-18T08:14:19;22.85;;;10.45;;
60014;SDS011;45867;52.480;6.056;2023-09-18T08:16:46;23.60;;;10.60;;
60014;SDS011;45867;52.480;6.056;2023-09-18T08:19:15;20.35;;;10.07;;
60014;SDS011;45867;52.480;6.056;2023-09-18T08:21:42;17.25;;;9.73;;
60014;SDS011;45867;52.480;6.056;2023-09-18T08:24:09;18.67;;;9.85;;
60014;SDS011;45867;52.480;6.056;2023-09-18T08:26:36;20.67;;;9.95;;
60014;SDS011;45867;52.480;6.056;2023-09-18T08:29:02;15.32;;;9.10;;
60014;SDS011;45867;52.480;6.056;2023-09-18T08:31:29;19.25;;;9.82;;
60014;SDS011;45867;52.480;6.056;2023-09-18T08:33:55;20.77;;;9.65;;
60014;SDS011;45867;52.480;6.056;2023-09-18T08:36:22;17.00;;;9.48;;
60014;SDS011;45867;52.480;6.056;2023-09-18T08:38:48;16.15;;;9.13;;
60014;SDS011;45867;52.480;6.056;2023-09-18T08:41:16;15.55;;;8.68;;
60014;SDS011;45867;52.480;6.056;2023-09-18T08:43:44;19.35;;;8.55;;
60014;SDS011;45867;52.480;6.056;2023-09-18T08:46:14;18.15;;;8.65;;
60014;SDS011;45867;52.480;6.056;2023-09-18T08:48:40;20.73;;;9.00;;
60014;SDS011;45867;52.480;6.056;2023-09-18T08:51:08;17.95;;;8.25;;
60014;SDS011;45867;52.480;6.056;2023-09-18T08:53:36;21.63;;;8.93;;
60014;SDS011;45867;52.480;6.056;2023-09-18T08:56:03;17.23;;;7.68;;
60014;SDS011;45867;52.480;6.056;2023-09-18T08:58:32;13.30;;;7.80;;
60014;SDS011;45867;52.480;6.056;2023-09-18T09:01:08;12.85;;;7.45;;
60014;SDS011;45867;52.480;6.056;2023-09-18T09:03:39;13.02;;;7.30;;
60014;SDS011;45867;52.480;6.056;2023-09-18T09:06:07;13.35;;;7.13;;
60014;SDS011;45867;52.480;6.056;2023-09-18T09:08:34;12.65;;;6.05;;
60014;SDS011;45867;52.480;6.056;2023-09-18T09:11:04;10.27;;;6.40;;
60014;SDS011;45867;52.480;6.056;2023-09-18T09:13:34;14.88;;;6.47;;
60014;SDS011;45867;52.480;6.056;2023-09-18T09:16:12;12.40;;;5.93;;
60014;SDS011;45867;52.480;6.056;2023-09-18T09:18:49;13.48;;;6.47;;
60014;SDS011;45867;52.480;6.056;2023-09-18T09:21:17;9.55;;;5.90;;
60014;SDS011;45867;52.480;6.056;2023-09-18T09:23:46;9.95;;;6.43;;
60014;SDS011;45867;52.480;6.056;2023-09-18T09:26:14;12.75;;;5.82;;
60014;SDS011;45867;52.480;6.056;2023-09-18T09:28:42;10.05;;;5.88;;
60014;SDS011;45867;52.480;6.056;2023-09-18T09:31:10;13.30;;;5.78;;
60014;SDS011;45867;52.480;6.056;2023-09-18T09:33:56;7.47;;;5.22;;
60014;SDS011;45867;52.480;6.056;2023-09-18T09:36:23;12.27;;;6.00;;
60014;SDS011;45867;52.480;6.056;2023-09-18T09:38:55;10.75;;;5.50;;
60014;SDS011;45867;52.480;6.056;2023-09-18T09:41:23;9.60;;;5.40;;
60014;SDS011;45867;52.480;6.056;2023-09-18T09:43:50;11.18;;;5.03;;
60014;SDS011;45867;52.480;6.056;2023-09-18T09:46:17;10.00;;;5.30;;
60014;SDS011;45867;52.480;6.056;2023-09-18T09:49:03;17.77;;;5.22;;
60014;SDS011;45867;52.480;6.056;2023-09-18T09:51:33;11.00;;;4.70;;
60014;SDS011;45867;52.480;6.056;2023-09-18T09:54:21;9.07;;;4.40;;
60014;SDS011;45867;52.480;6.056;2023-09-18T09:57:03;7.18;;;4.78;;
60014;SDS011;45867;52.480;6.056;2023-09-18T09:59:33;12.60;;;4.35;;
60014;SDS011;45867;52.480;6.056;2023-09-18T10:01:59;10.07;;;4.30;;
60014;SDS011;45867;52.480;6.056;2023-09-18T10:04:29;5.80;;;3.83;;
60014;SDS011;45867;52.480;6.056;2023-09-18T10:07:06;5.40;;;3.33;;
60014;SDS011;45867;52.480;6.056;2023-09-18T10:09:35;12.32;;;3.53;;
60014;SDS011;45867;52.480;6.056;2023-09-18T10:12:10;5.18;;;3.10;;
60014;SDS011;45867;52.480;6.056;2023-09-18T10:14:38;12.30;;;3.10;;
60014;SDS011;45867;52.480;6.056;2023-09-18T10:17:24;4.82;;;3.05;;
60014;SDS011;45867;52.480;6.056;2023-09-18T10:20:08;5.70;;;3.42;;
60014;SDS011;45867;52.480;6.056;2023-09-18T10:22:38;4.47;;;2.80;;
60014;SDS011;45867;52.480;6.056;2023-09-18T10:27:46;6.72;;;3.17;;
60014;SDS011;45867;52.480;6.056;2023-09-18T10:30:15;10.68;;;3.08;;
60014;SDS011;45867;52.480;6.056;2023-09-18T10:32:42;5.05;;;3.00;;
60014;SDS011;45867;52.480;6.056;2023-09-18T10:35:10;6.57;;;3.20;;
60014;SDS011;45867;52.480;6.056;2023-09-18T10:37:37;5.75;;;3.30;;
60014;SDS011;45867;52.480;6.056;2023-09-18T10:40:05;4.78;;;2.80;;
60014;SDS011;45867;52.480;6.056;2023-09-18T10:42:34;13.05;;;3.20;;
60014;SDS011;45867;52.480;6.056;2023-09-18T10:45:04;6.90;;;2.67;;
60014;SDS011;45867;52.480;6.056;2023-09-18T10:47:53;5.65;;;2.80;;
60014;SDS011;45867;52.480;6.056;2023-09-18T10:50:25;8.18;;;3.35;;
60014;SDS011;45867;52.480;6.056;2023-09-18T10:52:53;8.02;;;2.80;;
60014;SDS011;45867;52.480;6.056;2023-09-18T10:55:20;7.57;;;2.85;;
60014;SDS011;45867;52.480;6.056;2023-09-18T10:57:51;6.00;;;2.80;;
60014;SDS011;45867;52.480;6.056;2023-09-18T11:00:21;5.57;;;2.72;;
60014;SDS011;45867;52.480;6.056;2023-09-18T11:02:49;7.13;;;2.90;;
60014;SDS011;45867;52.480;6.056;2023-09-18T11:05:30;10.93;;;3.55;;
60014;SDS011;45867;52.480;6.056;2023-09-18T11:13:38;4.80;;;3.30;;
60014;SDS011;45867;52.480;6.056;2023-09-18T11:18:52;7.10;;;3.50;;
60014;SDS011;45867;52.480;6.056;2023-09-18T11:21:23;8.73;;;3.78;;
60014;SDS011;45867;52.480;6.056;2023-09-18T11:24:02;7.10;;;4.00;;
60014;SDS011;45867;52.480;6.056;2023-09-18T11:26:31;17.20;;;4.43;;
60014;SDS011;45867;52.480;6.056;2023-09-18T11:28:59;8.02;;;3.55;;
60014;SDS011;45867;52.480;6.056;2023-09-18T11:31:42;9.23;;;3.45;;
60014;SDS011;45867;52.480;6.056;2023-09-18T11:34:24;5.50;;;3.13;;
60014;SDS011;45867;52.480;6.056;2023-09-18T11:36:52;4.22;;;2.90;;
60014;SDS011;45867;52.480;6.056;2023-09-18T11:39:38;8.32;;;3.20;;
60014;SDS011;45867;52.480;6.056;2023-09-18T11:44:41;7.47;;;2.90;;
60014;SDS011;45867;52.480;6.056;2023-09-18T11:47:09;7.53;;;3.20;;
60014;SDS011;45867;52.480;6.056;2023-09-18T11:49:36;6.30;;;3.33;;
60014;SDS011;45867;52.480;6.056;2023-09-18T11:52:06;6.28;;;3.00;;
60014;SDS011;45867;52.480;6.056;2023-09-18T11:54:33;6.53;;;2.83;;
60014;SDS011;45867;52.480;6.056;2023-09-18T11:57:03;6.30;;;3.30;;
60014;SDS011;45867;52.480;6.056;2023-09-18T11:59:39;6.72;;;3.05;;
60014;SDS011;45867;52.480;6.056;2023-09-18T12:02:11;6.10;;;3.30;;
60014;SDS011;45867;52.480;6.056;2023-09-18T12:04:38;7.03;;;3.28;;
60014;SDS011;45867;52.480;6.056;2023-09-18T12:07:04;11.90;;;3.65;;
60014;SDS011;45867;52.480;6.056;2023-09-18T12:09:34;11.00;;;3.65;;
60014;SDS011;45867;52.480;6.056;2023-09-18T12:12:04;8.48;;;4.00;;
60014;SDS011;45867;52.480;6.056;2023-09-18T12:14:34;10.43;;;3.70;;
60014;SDS011;45867;52.480;6.056;2023-09-18T12:17:02;6.90;;;3.70;;
60014;SDS011;45867;52.480;6.056;2023-09-18T12:19:30;9.05;;;4.00;;
60014;SDS011;45867;52.480;6.056;2023-09-18T12:21:56;11.40;;;3.90;;
60014;SDS011;45867;52.480;6.056;2023-09-18T12:24:23;7.07;;;3.60;;
60014;SDS011;45867;52.480;6.056;2023-09-18T12:26:51;9.82;;;3.40;;
60014;SDS011;45867;52.480;6.056;2023-09-18T12:29:19;12.57;;;3.72;;
60014;SDS011;45867;52.480;6.056;2023-09-18T12:31:49;9.23;;;3.70;;
60014;SDS011;45867;52.480;6.056;2023-09-18T12:34:18;6.30;;;3.65;;
60014;SDS011;45867;52.480;6.056;2023-09-18T12:36:46;13.17;;;4.03;;
60014;SDS011;45867;52.480;6.056;2023-09-18T12:39:13;9.57;;;3.88;;
60014;SDS011;45867;52.480;6.056;2023-09-18T12:41:40;7.53;;;3.97;;
60014;SDS011;45867;52.480;6.056;2023-09-18T12:44:07;9.05;;;4.25;;
60014;SDS011;45867;52.480;6.056;2023-09-18T12:46:36;12.15;;;3.90;;
60014;SDS011;45867;52.480;6.056;2023-09-18T12:49:20;8.17;;;3.70;;
60014;SDS011;45867;52.480;6.056;2023-09-18T12:51:54;6.22;;;3.60;;
60014;SDS011;45867;52.480;6.056;2023-09-18T12:54:44;6.93;;;3.60;;
60014;SDS011;45867;52.480;6.056;2023-09-18T12:57:11;11.55;;;3.67;;
60014;SDS011;45867;52.480;6.056;2023-09-18T12:59:41;5.45;;;3.70;;
60014;SDS011;45867;52.480;6.056;2023-09-18T13:02:08;7.32;;;3.67;;
60014;SDS011;45867;52.480;6.056;2023-09-18T13:04:39;9.32;;;3.55;;
60014;SDS011;45867;52.480;6.056;2023-09-18T13:07:11;6.10;;;3.40;;
60014;SDS011;45867;52.480;6.056;2023-09-18T13:09:39;8.32;;;3.65;;
60014;SDS011;45867;52.480;6.056;2023-09-18T13:12:07;8.25;;;3.58;;
60014;SDS011;45867;52.480;6.056;2023-09-18T13:17:27;7.22;;;3.00;;
60014;SDS011;45867;52.480;6.056;2023-09-18T13:19:53;10.07;;;2.78;;
60014;SDS011;45867;52.480;6.056;2023-09-18T13:22:26;8.23;;;2.83;;
60014;SDS011;45867;52.480;6.056;2023-09-18T13:24:56;5.80;;;2.88;;
60014;SDS011;45867;52.480;6.056;2023-09-18T13:27:24;6.07;;;2.72;;
60014;SDS011;45867;52.480;6.056;2023-09-18T13:29:51;5.53;;;2.63;;
60014;SDS011;45867;52.480;6.056;2023-09-18T13:32:19;7.05;;;3.00;;
60014;SDS011;45867;52.480;6.056;2023-09-18T13:34:47;6.88;;;2.67;;
60014;SDS011;45867;52.480;6.056;2023-09-18T13:37:13;5.22;;;3.22;;
60014;SDS011;45867;52.480;6.056;2023-09-18T13:39:40;7.28;;;2.72;;
60014;SDS011;45867;52.480;6.056;2023-09-18T13:42:06;14.93;;;2.97;;
60014;SDS011;45867;52.480;6.056;2023-09-18T13:44:33;6.25;;;3.08;;
60014;SDS011;45867;52.480;6.056;2023-09-18T13:46:59;5.45;;;2.92;;
60014;SDS011;45867;52.480;6.056;2023-09-18T13:49:26;11.30;;;2.90;;
60014;SDS011;45867;52.480;6.056;2023-09-18T13:51:54;7.22;;;3.35;;
60014;SDS011;45867;52.480;6.056;2023-09-18T13:54:21;7.38;;;2.65;;
60014;SDS011;45867;52.480;6.056;2023-09-18T13:56:47;9.52;;;2.88;;
60014;SDS011;45867;52.480;6.056;2023-09-18T13:59:14;4.95;;;2.90;;
60014;SDS011;45867;52.480;6.056;2023-09-18T14:01:40;5.88;;;2.60;;
60014;SDS011;45867;52.480;6.056;2023-09-18T14:04:07;12.35;;;2.60;;
60014;SDS011;45867;52.480;6.056;2023-09-18T14:06:34;8.93;;;2.47;;
60014;SDS011;45867;52.480;6.056;2023-09-18T14:09:01;10.70;;;3.05;;
60014;SDS011;45867;52.480;6.056;2023-09-18T14:11:27;6.65;;;2.38;;
60014;SDS011;45867;52.480;6.056;2023-09-18T14:13:54;6.68;;;2.70;;
60014;SDS011;45867;52.480;6.056;2023-09-18T14:16:20;7.63;;;2.97;;
60014;SDS011;45867;52.480;6.056;2023-09-18T14:18:47;5.28;;;2.47;;
60014;SDS011;45867;52.480;6.056;2023-09-18T14:21:16;6.78;;;2.38;;
60014;SDS011;45867;52.480;6.056;2023-09-18T14:23:43;6.07;;;2.45;;
60014;SDS011;45867;52.480;6.056;2023-09-18T14:26:09;6.65;;;2.75;;
60014;SDS011;45867;52.480;6.056;2023-09-18T14:28:38;8.70;;;2.47;;
60014;SDS011;45867;52.480;6.056;2023-09-18T14:31:04;8.00;;;2.55;;
60014;SDS011;45867;52.480;6.056;2023-09-18T14:33:32;5.78;;;2.38;;
60014;SDS011;45867;52.480;6.056;2023-09-18T14:35:59;6.00;;;2.65;;
60014;SDS011;45867;52.480;6.056;2023-09-18T14:38:25;6.25;;;2.70;;
60014;SDS011;45867;52.480;6.056;2023-09-18T14:40:52;8.50;;;2.50;;
60014;SDS011;45867;52.480;6.056;2023-09-18T14:43:20;13.25;;;2.70;;
60014;SDS011;45867;52.480;6.056;2023-09-18T14:45:46;7.28;;;2.45;;
60014;SDS011;45867;52.480;6.056;2023-09-18T14:48:13;6.20;;;2.33;;
60014;SDS011;45867;52.480;6.056;2023-09-18T14:50:39;7.15;;;2.60;;
60014;SDS011;45867;52.480;6.056;2023-09-18T14:53:09;5.53;;;2.50;;
60014;SDS011;45867;52.480;6.056;2023-09-18T14:55:36;8.45;;;2.35;;
60014;SDS011;45867;52.480;6.056;2023-09-18T14:58:05;5.80;;;2.63;;